createdAt,value
2023-04-07T00:04:28.804Z,10.10
2023-04-07T00:11:30.890Z,10.14
2023-04-07T00:18:32.410Z,10.12
2023-04-07T00:25:33.965Z,10.18
2023-04-07T00:32:36.676Z,10.07
2023-04-07T00:39:38.368Z,10.23
2023-04-07T00:46:39.992Z,10.19
2023-04-07T00:53:41.567Z,10.13
2023-04-07T01:00:49.704Z,10.06
2023-04-07T01:08:24.691Z,9.98
2023-04-07T01:15:28.071Z,10.07
2023-04-07T01:22:53.199Z,10.03
2023-04-07T01:29:54.842Z,9.85
2023-04-07T01:36:56.588Z,9.84
2023-04-07T01:43:58.163Z,9.81
2023-04-07T01:50:59.707Z,9.79
2023-04-07T01:58:06.247Z,9.71
2023-04-07T02:05:09.694Z,9.62
2023-04-07T02:12:12.948Z,9.55
2023-04-07T02:19:19.666Z,9.50
2023-04-07T02:26:21.392Z,9.35
2023-04-07T02:33:23.813Z,9.26
2023-04-07T02:40:25.782Z,9.24
2023-04-07T02:47:28.449Z,9.24
2023-04-07T02:54:30.006Z,9.12
2023-04-07T03:01:32.160Z,9.10
2023-04-07T03:08:34.347Z,9.07
2023-04-07T03:15:35.976Z,9.07
2023-04-07T03:22:37.689Z,9.06
2023-04-07T03:29:43.304Z,9.00
2023-04-07T03:36:48.048Z,8.96
2023-04-07T03:43:50.960Z,8.93
2023-04-07T03:50:55.876Z,8.94
2023-04-07T03:57:57.621Z,9.04
2023-04-07T04:05:02.955Z,9.00
2023-04-07T04:12:04.720Z,8.90
2023-04-07T04:19:08.095Z,8.87
2023-04-07T04:26:10.459Z,8.77
2023-04-07T04:33:13.708Z,8.74
2023-04-07T04:40:29.197Z,8.62
2023-04-07T04:47:31.852Z,8.61
2023-04-07T04:54:35.178Z,8.54
2023-04-07T05:01:37.292Z,8.46
2023-04-07T05:08:43.339Z,8.44
2023-04-07T05:15:45.612Z,8.39
2023-04-07T05:22:48.767Z,8.36
2023-04-07T05:29:52.446Z,8.37
2023-04-07T05:37:00.263Z,8.33
2023-04-07T05:44:01.996Z,8.36
2023-04-07T05:51:05.867Z,8.47
2023-04-07T05:58:07.489Z,8.48
2023-04-07T06:05:10.569Z,8.60
2023-04-07T06:12:16.855Z,8.57
2023-04-07T06:19:18.771Z,8.83
2023-04-07T06:26:21.597Z,8.82
2023-04-07T06:33:25.720Z,8.83
2023-04-07T06:40:27.475Z,8.90
2023-04-07T06:47:29.346Z,8.96
2023-04-07T06:54:31.001Z,8.85
2023-04-07T07:01:35.365Z,8.57
2023-04-07T07:08:37.050Z,8.61
2023-04-07T07:15:38.706Z,8.90
2023-04-07T07:22:41.353Z,9.02
2023-04-07T07:29:43.231Z,9.58
2023-04-07T07:36:44.790Z,9.55
2023-04-07T07:43:46.773Z,9.81
2023-04-07T07:50:49.097Z,9.90
2023-04-07T07:57:50.990Z,10.17
2023-04-07T08:04:52.728Z,10.21
2023-04-07T08:11:54.529Z,10.32
2023-04-07T08:18:56.120Z,10.81
2023-04-07T08:25:57.761Z,11.17
2023-04-07T08:32:59.435Z,10.56
2023-04-07T08:40:01.571Z,10.64
2023-04-07T08:47:03.243Z,11.11
2023-04-07T08:54:11.737Z,11.02
2023-04-07T09:01:13.633Z,10.63
2023-04-07T09:08:15.285Z,11.34
2023-04-07T09:15:16.942Z,11.30
2023-04-07T09:22:34.631Z,11.06
2023-04-07T09:29:36.461Z,10.29
2023-04-07T09:36:43.992Z,10.07
2023-04-07T09:43:46.483Z,10.52
2023-04-07T09:50:51.924Z,10.39
2023-04-07T09:57:55.495Z,10.45
2023-04-07T10:04:57.076Z,10.81
2023-04-07T10:11:59.672Z,10.67
2023-04-07T10:19:01.537Z,10.89
2023-04-07T10:26:03.437Z,10.31
2023-04-07T10:33:05.130Z,10.91
2023-04-07T10:40:19.030Z,11.21
2023-04-07T10:47:20.740Z,11.24
2023-04-07T10:54:23.359Z,11.12
2023-04-07T11:01:25.015Z,11.21
2023-04-07T11:08:33.747Z,11.14
2023-04-07T11:15:37.200Z,11.33
2023-04-07T11:22:41.261Z,11.12
2023-04-07T11:29:43.508Z,11.47
2023-04-07T11:36:45.180Z,11.13
2023-04-07T11:43:46.916Z,11.08
2023-04-07T11:50:48.663Z,10.86
2023-04-07T11:57:51.795Z,10.70
2023-04-07T12:04:57.467Z,10.48
2023-04-07T12:11:59.390Z,10.84
2023-04-07T12:19:00.965Z,10.75
2023-04-07T12:26:02.747Z,10.62
2023-04-07T12:33:04.395Z,10.58
2023-04-07T12:40:06.677Z,10.94
2023-04-07T12:47:09.324Z,11.03
2023-04-07T12:54:10.945Z,10.90
2023-04-07T13:01:12.660Z,10.68
2023-04-07T13:08:14.286Z,11.01
2023-04-07T13:15:16.058Z,10.92
2023-04-07T13:22:21.259Z,11.11
2023-04-07T13:29:23.810Z,10.57
2023-04-07T13:36:27.319Z,10.42
2023-04-07T13:43:28.880Z,10.89
2023-04-07T13:50:30.943Z,11.00
2023-04-07T13:57:32.449Z,10.49
2023-04-07T14:04:34.142Z,10.71
2023-04-07T14:11:36.034Z,10.72
2023-04-07T14:18:37.575Z,10.50
2023-04-07T14:25:39.154Z,10.93
2023-04-07T14:32:40.817Z,10.79
2023-04-07T14:39:48.530Z,10.76
2023-04-07T14:46:57.416Z,10.73
2023-04-07T14:53:59.039Z,10.77
2023-04-07T15:01:00.582Z,10.90
2023-04-07T15:08:02.193Z,10.78
2023-04-07T15:15:03.963Z,10.53
2023-04-07T15:22:05.865Z,10.70
2023-04-07T15:29:07.404Z,10.80
2023-04-07T15:36:09.176Z,10.81
2023-04-07T15:43:11.368Z,10.86
2023-04-07T15:50:13.170Z,10.81
2023-04-07T15:57:16.665Z,10.71
2023-04-07T16:04:19.283Z,10.68
2023-04-07T16:11:21.178Z,10.72
2023-04-07T16:18:22.840Z,10.71
2023-04-07T16:25:24.451Z,10.81
2023-04-07T16:32:27.525Z,10.68
2023-04-07T16:39:29.677Z,10.71
2023-04-07T16:46:31.552Z,10.83
2023-04-07T16:53:33.154Z,10.69
2023-04-07T17:00:34.698Z,10.71
2023-04-07T17:07:36.206Z,10.73
2023-04-07T17:14:37.770Z,10.69
2023-04-07T17:21:39.303Z,10.54
2023-04-07T17:28:40.893Z,10.59
2023-04-07T17:35:42.494Z,10.67
2023-04-07T17:42:44.593Z,10.49
2023-04-07T17:49:48.647Z,10.52
2023-04-07T17:56:50.271Z,10.60
2023-04-07T18:03:52.971Z,10.49
2023-04-07T18:10:54.826Z,10.40
2023-04-07T18:17:56.934Z,10.60
2023-04-07T18:25:00.234Z,10.51
2023-04-07T18:32:01.845Z,10.52
2023-04-07T18:39:04.728Z,10.60
2023-04-07T18:46:07.102Z,10.44
2023-04-07T18:53:08.750Z,10.33
2023-04-07T19:00:10.517Z,10.39
2023-04-07T19:07:12.241Z,10.53
2023-04-07T19:14:13.983Z,10.43
2023-04-07T19:21:15.650Z,10.35
2023-04-07T19:28:17.295Z,10.18
2023-04-07T19:35:18.934Z,9.90
2023-04-07T19:42:20.544Z,10.20
2023-04-07T19:49:22.202Z,10.12
2023-04-07T19:56:25.020Z,9.90
2023-04-07T20:03:26.779Z,10.29
2023-04-07T20:10:28.485Z,10.13
2023-04-07T20:17:32.426Z,10.14
2023-04-07T20:24:37.311Z,10.16
2023-04-07T20:31:38.986Z,10.37
2023-04-07T20:38:43.735Z,10.29
2023-04-07T20:45:47.356Z,10.35
2023-04-07T20:52:49.127Z,10.24
2023-04-07T20:59:50.907Z,10.26
2023-04-07T21:06:52.469Z,10.23
2023-04-07T21:13:54.139Z,10.25
2023-04-07T21:20:59.649Z,10.41
2023-04-07T21:28:01.285Z,10.00
2023-04-07T21:35:03.789Z,10.29
2023-04-07T21:42:05.418Z,10.10
2023-04-07T21:49:07.212Z,10.01
2023-04-07T21:56:09.372Z,10.09
2023-04-07T22:03:11.141Z,10.22
2023-04-07T22:10:12.976Z,10.07
2023-04-07T22:17:14.607Z,10.06
2023-04-07T22:24:16.370Z,10.05
2023-04-07T22:31:17.988Z,10.12
2023-04-07T22:38:19.595Z,10.12
2023-04-07T22:45:21.226Z,9.87
2023-04-07T22:52:23.161Z,9.84
2023-04-07T22:59:24.775Z,9.96
2023-04-07T23:06:28.526Z,9.72
2023-04-07T23:13:30.254Z,9.81
2023-04-07T23:20:31.846Z,9.96
2023-04-07T23:27:33.430Z,10.04
2023-04-07T23:34:35.206Z,10.22
2023-04-07T23:41:36.904Z,9.96
2023-04-07T23:48:39.267Z,9.97
2023-04-07T23:55:41.490Z,9.80
